Time;durP1;ratioP1;P1;durP2;ratioP2;P2;SDS_P1;SDS_P2;PMS_P1;PMS_P2;Temp;Humidity;BMP_temperature;BMP_pressure;BME280_temperature;BME280_humidity;BME280_pressure;Samples;Min_cycle;Max_cycle;Signal;HPM_P1;HPM_P2
2023/07/06 00:01:42;;;;;;;8.90;7.87;;;;;;;24.35;71.17;96760.69;5051467;28;20210;-80
2023/07/06 00:05:03;;;;;;;11.83;7.87;;;;;;;24.27;70.36;96763.31;5035369;28;20298;-81
2023/07/06 00:08:24;;;;;;;8.73;7.43;;;;;;;24.22;70.63;96759.34;5035887;28;20206;-82
2023/07/06 00:11:47;;;;;;;10.00;7.87;;;;;;;23.76;70.77;96735.97;5055019;28;20200;-82
2023/07/06 00:15:09;;;;;;;8.93;7.50;;;;;;;23.45;72.16;96756.00;5048686;28;20197;-81
2023/07/06 00:18:30;;;;;;;9.60;7.37;;;;;;;23.79;71.04;96746.25;5067203;28;20221;-82
2023/07/06 00:21:52;;;;;;;8.30;6.50;;;;;;;23.87;69.68;96748.94;5067748;28;20196;-82
2023/07/06 00:25:14;;;;;;;8.97;6.73;;;;;;;23.98;69.20;96748.66;5067194;28;20200;-81
2023/07/06 00:28:35;;;;;;;9.90;6.57;;;;;;;23.99;67.67;96741.53;5051149;28;20198;-79
2023/07/06 00:32:15;;;;;;;7.93;6.13;;;;;;;24.04;67.15;96737.47;5066596;28;20718;-81
2023/07/06 00:35:37;;;;;;;7.73;5.60;;;;;;;24.20;66.86;96723.44;5051778;28;20201;-81
2023/07/06 00:39:01;;;;;;;7.13;5.60;;;;;;;24.11;65.99;96712.00;5034743;28;20237;-80
2023/07/06 00:42:24;;;;;;;7.67;6.30;;;;;;;24.08;67.18;96728.22;5050967;28;20260;-80
2023/07/06 00:45:44;;;;;;;7.60;6.73;;;;;;;24.07;67.65;96734.47;5048111;28;20629;-81
2023/07/06 00:49:11;;;;;;;10.37;5.27;;;;;;;24.31;64.02;96735.53;5047912;28;20207;-79
2023/07/06 00:52:33;;;;;;;5.67;4.53;;;;;;;24.31;62.88;96738.19;5066597;28;20800;-78
2023/07/06 00:55:57;;;;;;;5.73;4.73;;;;;;;24.20;62.26;96739.31;5048799;28;20650;-79
2023/07/06 00:59:26;;;;;;;5.77;4.90;;;;;;;24.28;62.23;96738.53;5066409;28;20311;-79
2023/07/06 01:02:48;;;;;;;7.53;3.97;;;;;;;24.35;61.71;96734.22;5065802;28;20234;-82
2023/07/06 01:06:09;;;;;;;6.20;4.20;;;;;;;24.33;60.67;96747.63;5049057;28;20223;-83
2023/07/06 01:09:31;;;;;;;7.00;4.70;;;;;;;24.32;61.82;96735.38;5066583;28;20228;-79
2023/07/06 01:12:51;;;;;;;8.53;4.27;;;;;;;24.36;60.59;96728.75;5065647;28;20195;-80
2023/07/06 01:15:56;;;;;;;9.97;4.90;;;;;;;23.89;65.93;96736.38;5031724;28;20364;-81
2023/07/06 01:19:17;;;;;;;10.33;7.73;;;;;;;23.32;73.60;96731.78;5050520;28;20207;-81
2023/07/06 01:22:17;;;;;;;9.53;7.97;;;;;;;23.31;74.45;96738.00;5066610;28;20210;-81
2023/07/06 01:25:02;;;;;;;11.07;8.30;;;;;;;23.32;73.86;96747.66;5065969;28;20289;-83
2023/07/06 01:28:03;;;;;;;10.30;7.60;;;;;;;23.15;74.92;96749.31;5050657;28;20338;-83
2023/07/06 01:31:11;;;;;;;12.93;8.70;;;;;;;23.35;74.22;96749.97;5048010;28;20194;-83
2023/07/06 01:34:20;;;;;;;10.53;8.20;;;;;;;23.43;74.49;96763.25;5066107;28;20201;-81
2023/07/06 01:37:49;;;;;;;12.70;9.03;;;;;;;23.34;74.93;96765.00;5050160;28;20225;-79
2023/07/06 01:41:10;;;;;;;9.60;8.60;;;;;;;23.23;74.85;96759.09;5065304;28;20874;-81
2023/07/06 01:44:33;;;;;;;9.80;8.80;;;;;;;23.07;75.18;96767.75;5047908;28;20276;-80
2023/07/06 01:47:58;;;;;;;11.93;8.97;;;;;;;22.95;76.00;96770.78;5047773;28;20211;-81
2023/07/06 01:50:43;;;;;;;11.80;8.73;;;;;;;22.84;76.74;96771.00;5065696;28;20194;-79
2023/07/06 01:53:45;;;;;;;9.73;8.00;;;;;;;22.91;76.15;96777.34;5032867;28;20208;-78
2023/07/06 01:57:06;;;;;;;11.80;8.70;;;;;;;22.83;76.48;96761.44;5050178;28;20243;-80
2023/07/06 02:00:28;;;;;;;10.13;8.30;;;;;;;23.15;75.29;96756.41;5035693;28;20263;-81
2023/07/06 02:03:50;;;;;;;11.60;8.13;;;;;;;23.22;74.45;96749.53;5020335;28;20227;-80
2023/07/06 02:07:14;;;;;;;8.83;7.87;;;;;;;23.46;74.20;96765.56;5069349;28;20202;-79
2023/07/06 02:10:35;;;;;;;12.87;8.17;;;;;;;23.42;73.53;96774.78;5051357;28;20237;-79
2023/07/06 02:13:56;;;;;;;7.70;6.80;;;;;;;23.08;73.59;96772.03;5052637;28;20198;-77
2023/07/06 02:17:17;;;;;;;8.50;7.43;;;;;;;23.12;72.81;96769.94;5069212;28;20759;-79
2023/07/06 02:20:38;;;;;;;7.17;6.47;;;;;;;23.16;70.77;96777.38;5034305;28;20698;-78
2023/07/06 02:23:59;;;;;;;10.40;7.07;;;;;;;23.13;71.64;96779.50;5020327;28;20211;-77
2023/07/06 02:27:20;;;;;;;7.13;5.80;;;;;;;23.11;70.17;96766.47;5051770;28;20230;-77
2023/07/06 02:30:40;;;;;;;9.63;7.63;;;;;;;22.95;70.42;96771.63;5069309;28;20602;-77
2023/07/06 02:34:01;;;;;;;6.93;5.80;;;;;;;22.70;72.21;96782.09;5034397;28;20198;-81
2023/07/06 02:37:23;;;;;;;8.43;5.77;;;;;;;22.92;71.75;96776.34;5050662;28;20231;-79
2023/07/06 02:40:44;;;;;;;9.70;7.63;;;;;;;22.92;71.12;96760.50;5053328;28;20725;-81
2023/07/06 02:44:07;;;;;;;8.97;6.20;;;;;;;23.07;71.12;96738.69;5053314;28;20208;-77
2023/07/06 02:47:29;;;;;;;14.90;6.93;;;;;;;23.11;71.69;96766.47;5034575;28;20201;-80
2023/07/06 02:50:51;;;;;;;11.90;7.37;;;;;;;23.07;71.59;96756.34;5019919;28;20288;-80
2023/07/06 02:54:15;;;;;;;15.90;8.23;;;;;;;23.05;72.29;96766.25;5036668;28;20762;-80
2023/07/06 02:57:39;;;;;;;10.13;6.20;;;;;;;22.48;71.91;96783.34;5073336;28;20227;-79
2023/07/06 03:01:00;;;;;;;9.40;6.90;;;;;;;22.30;73.54;96769.28;5072459;28;20200;-80
2023/07/06 03:04:22;;;;;;;9.70;6.57;;;;;;;22.60;72.84;96771.63;5050513;28;20192;-79
2023/07/06 03:07:43;;;;;;;7.63;6.80;;;;;;;22.65;72.40;96770.19;5035796;28;20276;-78
2023/07/06 03:11:04;;;;;;;7.77;7.00;;;;;;;22.76;71.92;96753.28;5068067;28;20200;-81
2023/07/06 03:14:26;;;;;;;11.97;7.27;;;;;;;22.80;72.75;96770.50;5051277;28;20195;-80
2023/07/06 03:17:48;;;;;;;11.07;8.00;;;;;;;22.84;72.65;96771.00;5029329;28;20294;-80
2023/07/06 03:21:11;;;;;;;13.40;8.23;;;;;;;23.01;71.68;96764.88;5048798;28;20222;-82
2023/07/06 03:23:52;;;;;;;8.93;7.27;;;;;;;23.05;71.10;96755.66;5048243;28;20287;-82
2023/07/06 03:26:22;;;;;;;10.57;7.90;;;;;;;22.96;71.28;96756.56;5034409;28;20211;-78
2023/07/06 03:28:50;;;;;;;13.73;8.27;;;;;;;22.90;71.80;96762.47;5027046;28;20212;-79
2023/07/06 03:31:21;;;;;;;11.23;7.90;;;;;;;22.64;71.31;96744.78;5035666;28;20201;-81
2023/07/06 03:33:49;;;;;;;10.20;7.10;;;;;;;22.46;72.33;96753.66;5031052;28;20208;-78
2023/07/06 03:36:17;;;;;;;12.30;7.13;;;;;;;22.43;72.28;96738.94;5054452;28;20203;-78
2023/07/06 03:38:49;;;;;;;8.90;6.30;;;;;;;22.14;73.09;96748.00;5051258;28;20206;-82
2023/07/06 03:41:17;;;;;;;10.77;7.57;;;;;;;22.13;73.80;96760.41;5031010;28;20235;-83
2023/07/06 03:43:47;;;;;;;9.50;6.93;;;;;;;21.94;74.10;96770.19;5006032;28;20193;-82
2023/07/06 03:46:33;;;;;;;11.47;7.43;;;;;;;22.11;74.04;96770.25;5015781;28;20206;-80
2023/07/06 03:49:10;;;;;;;11.63;7.53;;;;;;;22.28;72.98;96756.25;5006558;28;20207;-80
2023/07/06 03:51:54;;;;;;;11.07;7.67;;;;;;;22.56;72.06;96770.25;5052820;28;20217;-80
2023/07/06 03:54:24;;;;;;;11.10;6.53;;;;;;;23.01;70.18;96754.31;5025145;28;20216;-78
2023/07/06 03:56:53;;;;;;;9.67;6.30;;;;;;;23.64;68.17;96763.69;5049921;28;20247;-79
2023/07/06 03:59:21;;;;;;;11.80;6.40;;;;;;;23.75;66.76;96768.72;5033350;28;20300;-80
2023/07/06 04:01:49;;;;;;;11.40;7.40;;;;;;;23.88;66.27;96774.41;5033761;28;20226;-79
2023/07/06 04:04:18;;;;;;;9.47;6.23;;;;;;;23.62;66.67;96739.22;5034339;28;20285;-81
2023/07/06 04:06:45;;;;;;;13.03;7.13;;;;;;;24.28;65.01;96786.16;5048999;28;20208;-81
2023/07/06 04:09:14;;;;;;;15.10;8.23;;;;;;;24.14;65.06;96771.72;5041952;28;20205;-78
2023/07/06 04:11:47;;;;;;;14.90;7.33;;;;;;;24.14;64.13;96761.97;5045294;28;20208;-80
2023/07/06 04:14:21;;;;;;;9.93;6.67;;;;;;;23.83;65.44;96752.03;5057344;28;20214;-79
2023/07/06 04:16:54;;;;;;;9.93;6.10;;;;;;;24.05;64.96;96773.50;5023424;28;20281;-78
2023/07/06 04:19:30;;;;;;;9.93;6.73;;;;;;;24.15;65.23;96782.13;5056595;28;20214;-83
2023/07/06 04:21:58;;;;;;;9.73;6.83;;;;;;;24.21;65.34;96786.78;5021369;28;20613;-78
2023/07/06 04:25:07;;;;;;;8.77;6.57;;;;;;;24.04;65.53;96793.03;5038004;28;20204;-81
2023/07/06 04:28:28;;;;;;;9.83;6.30;;;;;;;24.29;64.71;96801.88;5046485;28;20226;-79
2023/07/06 04:31:48;;;;;;;12.40;6.27;;;;;;;24.10;65.23;96797.69;5046935;28;20749;-78
2023/07/06 04:35:09;;;;;;;7.50;5.90;;;;;;;24.29;63.66;96798.41;4999189;28;20201;-78
2023/07/06 04:38:30;;;;;;;6.07;5.10;;;;;;;24.79;62.02;96809.81;5048364;28;20270;-77
2023/07/06 04:41:51;;;;;;;7.83;6.07;;;;;;;25.37;60.39;96807.84;5048432;28;20215;-77
2023/07/06 04:45:13;;;;;;;7.67;5.53;;;;;;;25.60;60.45;96810.66;5030952;28;20584;-78
2023/07/06 04:48:34;;;;;;;12.60;6.47;;;;;;;25.75;59.29;96801.84;5066639;28;20283;-77
2023/07/06 04:51:55;;;;;;;14.53;5.90;;;;;;;25.43;59.09;96807.19;5048024;28;20203;-77
2023/07/06 04:55:22;;;;;;;8.10;5.30;;;;;;;25.61;58.69;96813.16;5048079;28;20708;-76
2023/07/06 04:58:45;;;;;;;10.13;5.50;;;;;;;26.33;56.38;96814.78;5066001;28;20320;-78
2023/07/06 05:02:06;;;;;;;7.43;5.60;;;;;;;26.63;55.65;96810.47;5047934;28;20225;-81
2023/07/06 05:05:26;;;;;;;5.53;4.83;;;;;;;27.16;52.82;96818.44;5065949;28;20225;-78
2023/07/06 05:08:52;;;;;;;7.97;5.63;;;;;;;27.57;52.39;96820.81;5048401;28;20190;-82
2023/07/06 05:12:14;;;;;;;8.83;5.90;;;;;;;27.56;52.53;96819.13;5065723;28;20211;-79
2023/07/06 05:15:36;;;;;;;8.47;7.23;;;;;;;27.16;53.70;96825.63;5048463;28;20205;-80
2023/07/06 05:18:58;;;;;;;8.97;5.10;;;;;;;27.10;53.80;96826.34;5065793;28;20237;-78
2023/07/06 05:22:20;;;;;;;8.30;5.27;;;;;;;27.31;53.27;96829.97;5047414;28;20193;-78
2023/07/06 05:25:41;;;;;;;10.27;5.50;;;;;;;26.59;54.95;96798.53;5030510;28;20290;-78
2023/07/06 05:29:05;;;;;;;7.43;5.27;;;;;;;26.85;54.51;96815.03;5058662;28;20202;-80
2023/07/06 05:32:27;;;;;;;9.83;6.10;;;;;;;27.62;52.79;96835.22;5046194;28;20201;-77
2023/07/06 05:35:49;;;;;;;6.43;5.33;;;;;;;27.54;53.11;96823.81;5027241;28;20201;-79
2023/07/06 05:39:13;;;;;;;10.43;6.87;;;;;;;28.28;51.63;96837.03;5030203;28;20229;-82
2023/07/06 05:42:35;;;;;;;10.77;6.10;;;;;;;28.50;50.90;96820.09;5045642;28;20213;-79
2023/07/06 05:46:04;;;;;;;9.47;5.17;;;;;;;28.87;50.01;96822.63;5045404;28;20205;-78
2023/07/06 05:49:26;;;;;;;44.27;25.33;;;;;;;28.20;50.54;96837.13;5045491;28;20189;-78
2023/07/06 05:52:47;;;;;;;7.33;5.57;;;;;;;28.20;51.24;96834.47;5045013;28;20205;-78
2023/07/06 05:56:09;;;;;;;8.37;5.30;;;;;;;28.39;51.41;96835.75;5044933;28;20194;-77
2023/07/06 05:59:34;;;;;;;7.40;4.73;;;;;;;28.55;51.50;96828.38;5027155;28;20229;-78
2023/07/06 06:02:57;;;;;;;8.43;4.87;;;;;;;28.83;49.59;96825.88;5030227;28;20226;-78
2023/07/06 06:06:18;;;;;;;6.87;5.17;;;;;;;28.85;48.64;96829.19;5045098;28;20731;-78
2023/07/06 06:09:39;;;;;;;17.27;9.03;;;;;;;28.70;49.49;96845.22;5026509;28;20689;-78
2023/07/06 06:13:00;;;;;;;6.40;5.27;;;;;;;27.79;51.88;96811.94;5012270;28;20289;-79
2023/07/06 06:16:22;;;;;;;8.33;5.63;;;;;;;28.32;51.63;96843.66;5029352;28;20197;-81
2023/07/06 06:19:45;;;;;;;10.30;5.83;;;;;;;28.63;51.17;96838.97;5045486;28;20217;-80
2023/07/06 06:23:10;;;;;;;7.90;6.13;;;;;;;28.91;50.11;96834.56;5055258;28;20201;-82
2023/07/06 06:26:33;;;;;;;9.43;6.40;;;;;;;28.80;50.35;96803.06;5045919;28;20287;-78
2023/07/06 06:29:56;;;;;;;10.33;6.17;;;;;;;28.93;50.15;96827.19;5064984;28;20224;-79
2023/07/06 06:33:18;;;;;;;7.00;6.13;;;;;;;28.28;52.51;96831.72;5045598;28;20808;-79
2023/07/06 06:36:41;;;;;;;8.13;6.40;;;;;;;28.06;52.18;96822.00;5065093;28;20202;-81
2023/07/06 06:40:02;;;;;;;8.70;5.90;;;;;;;27.90;52.48;96822.94;5046810;28;20303;-80
2023/07/06 06:43:27;;;;;;;10.00;6.33;;;;;;;28.44;53.71;96810.19;5047391;28;20208;-83
2023/07/06 06:46:49;;;;;;;13.50;7.27;;;;;;;29.06;52.03;96812.38;5048612;28;20205;-80
2023/07/06 06:50:20;;;;;;;13.63;9.03;;;;;;;29.01;52.16;96820.09;5036741;28;20233;-79
2023/07/06 06:53:58;;;;;;;11.70;7.10;;;;;;;29.07;51.60;96817.50;5050999;28;20402;-77
2023/07/06 06:57:21;;;;;;;13.20;8.00;;;;;;;28.67;51.68;96816.25;5049666;28;20727;-83
2023/07/06 07:00:44;;;;;;;13.53;8.13;;;;;;;28.95;51.43;96803.03;5037131;28;21218;-79
2023/07/06 07:04:05;;;;;;;18.33;10.33;;;;;;;29.25;51.30;96817.06;5069949;28;20244;-78
2023/07/06 07:07:31;;;;;;;20.50;13.23;;;;;;;29.03;50.67;96818.06;5069514;28;20280;-81
2023/07/06 07:10:52;;;;;;;19.97;9.03;;;;;;;28.68;51.41;96820.56;5035901;28;20591;-78
2023/07/06 07:14:15;;;;;;;14.80;8.97;;;;;;;28.59;51.48;96824.34;5050522;28;20221;-77
2023/07/06 07:17:39;;;;;;;16.20;8.73;;;;;;;29.15;51.03;96812.06;5049524;28;20232;-77
2023/07/06 07:21:01;;;;;;;18.33;8.47;;;;;;;29.30;50.41;96809.34;5021727;28;20193;-77
2023/07/06 07:24:24;;;;;;;9.17;6.50;;;;;;;29.53;51.63;96818.75;5052345;28;20590;-75
2023/07/06 07:27:48;;;;;;;6.50;5.20;;;;;;;29.72;49.43;96809.25;5052118;28;20296;-79
2023/07/06 07:31:17;;;;;;;6.17;5.37;;;;;;;29.76;48.14;96813.22;5049859;28;20197;-78
2023/07/06 07:34:38;;;;;;;12.40;6.87;;;;;;;29.95;49.12;96822.38;5067238;28;20243;-82
2023/07/06 07:38:01;;;;;;;9.67;6.73;;;;;;;30.00;47.76;96815.44;5050651;28;20596;-84
2023/07/06 07:41:32;;;;;;;7.53;5.57;;;;;;;30.23;45.78;96823.97;5049366;28;20205;-79
2023/07/06 07:44:15;;;;;;;11.30;7.67;;;;;;;30.38;44.92;96815.88;4974006;28;20334;-78
2023/07/06 07:46:43;;;;;;;11.33;6.60;;;;;;;30.30;45.74;96816.03;5004938;28;20280;-78
2023/07/06 07:49:11;;;;;;;11.07;6.17;;;;;;;30.51;44.63;96824.78;4989467;28;20237;-83
2023/07/06 07:51:40;;;;;;;9.13;6.20;;;;;;;30.40;44.71;96819.16;5005484;28;20203;-78
2023/07/06 07:54:09;;;;;;;10.07;6.40;;;;;;;30.41;44.65;96818.16;4973928;28;20222;-78
2023/07/06 07:56:42;;;;;;;12.13;6.50;;;;;;;30.47;43.95;96826.22;4988597;28;20213;-76
2023/07/06 07:59:15;;;;;;;13.33;6.90;;;;;;;30.41;44.97;96818.16;4990298;28;20220;-78
2023/07/06 08:01:45;;;;;;;9.03;6.13;;;;;;;30.64;43.58;96812.50;4989067;28;20227;-80
2023/07/06 08:04:14;;;;;;;8.40;6.03;;;;;;;30.32;45.48;96824.69;5006243;28;20199;-79
2023/07/06 08:06:44;;;;;;;8.90;5.50;;;;;;;30.44;44.31;96807.88;4973370;28;20528;-79
2023/07/06 08:09:24;;;;;;;7.57;5.00;;;;;;;30.33;44.81;96816.50;4990156;28;20254;-82
2023/07/06 08:11:53;;;;;;;10.20;5.60;;;;;;;30.68;43.82;96819.09;4989577;28;20311;-78
2023/07/06 08:14:41;;;;;;;10.53;5.33;;;;;;;30.71;43.91;96813.34;5030511;28;20209;-80
2023/07/06 08:17:14;;;;;;;6.57;5.50;;;;;;;30.83;44.85;96817.09;5048918;28;20225;-78
2023/07/06 08:19:45;;;;;;;8.23;5.50;;;;;;;30.77;46.11;96820.56;5049177;28;20201;-78
2023/07/06 08:22:36;;;;;;;6.47;5.50;;;;;;;30.83;45.54;96819.75;5067081;28;20276;-77
2023/07/06 08:25:48;;;;;;;6.97;4.90;;;;;;;31.18;44.58;96822.13;5018116;28;20222;-79
2023/07/06 08:29:09;;;;;;;6.50;4.90;;;;;;;31.25;44.15;96824.81;5066618;28;20205;-79
2023/07/06 08:32:33;;;;;;;10.53;5.50;;;;;;;31.40;44.66;96822.81;5047520;28;20205;-79
2023/07/06 08:36:04;;;;;;;8.83;6.30;;;;;;;30.67;44.30;96826.28;5046873;28;20221;-81
2023/07/06 08:38:47;;;;;;;11.30;6.73;;;;;;;29.64;46.71;96814.72;5031709;28;20229;-76
2023/07/06 08:41:33;;;;;;;10.33;7.30;;;;;;;30.23;46.50;96815.16;5049875;28;20592;-78
2023/07/06 08:44:05;;;;;;;9.60;5.33;;;;;;;30.86;45.75;96816.69;5050253;28;20233;-81
2023/07/06 08:46:38;;;;;;;8.30;5.53;;;;;;;30.88;45.15;96785.22;5034125;28;20726;-79
2023/07/06 08:49:32;;;;;;;9.07;5.10;;;;;;;31.10;44.73;96818.81;5033748;28;20770;-78
2023/07/06 08:52:05;;;;;;;7.07;5.30;;;;;;;30.85;45.65;96809.72;5046668;28;20193;-79
2023/07/06 08:54:41;;;;;;;8.38;5.50;;;;;;;30.97;44.26;96813.44;5048381;28;20291;-78
2023/07/06 08:57:15;;;;;;;6.40;5.23;;;;;;;31.23;43.90;96814.31;5049016;28;20197;-76
2023/07/06 08:59:48;;;;;;;9.50;5.90;;;;;;;31.26;44.16;96823.78;5016117;28;20201;-78
2023/07/06 09:02:27;;;;;;;6.20;5.10;;;;;;;31.17;44.78;96816.97;5048528;28;20240;-79
2023/07/06 09:05:00;;;;;;;9.40;6.47;;;;;;;31.32;43.75;96804.25;5048618;28;20189;-78
2023/07/06 09:07:42;;;;;;;7.50;5.40;;;;;;;31.40;43.57;96808.59;5049552;28;20201;-78
2023/07/06 09:10:20;;;;;;;6.45;5.10;;;;;;;31.53;43.87;96820.13;5048586;28;20294;-82
2023/07/06 09:13:28;;;;;;;7.23;5.63;;;;;;;31.72;43.32;96807.75;5050287;28;20284;-78
2023/07/06 09:16:00;;;;;;;8.93;5.03;;;;;;;31.57;43.24;96826.72;5051514;28;20197;-79
2023/07/06 09:19:11;;;;;;;8.90;5.10;;;;;;;31.63;43.56;96812.50;5047613;28;20716;-76
2023/07/06 09:22:32;;;;;;;5.60;5.10;;;;;;;31.38;43.03;96810.63;5065159;28;20212;-82
2023/07/06 09:25:54;;;;;;;9.80;5.38;;;;;;;31.45;43.37;96812.28;5050630;28;20736;-81
2023/07/06 09:29:19;;;;;;;8.13;5.78;;;;;;;31.59;43.03;96784.50;5047785;28;20259;-82
2023/07/06 09:32:59;;;;;;;8.32;4.97;;;;;;;31.83;42.04;96793.72;5046336;28;20202;-83
2023/07/06 09:36:23;;;;;;;7.03;5.50;;;;;;;31.22;43.94;96795.78;5045583;28;20239;-79
2023/07/06 09:39:44;;;;;;;7.25;5.63;;;;;;;31.17;43.12;96798.25;5065079;28;20236;-76
2023/07/06 09:43:06;;;;;;;7.30;5.75;;;;;;;30.52;44.24;96799.69;5064896;28;20209;-74
2023/07/06 09:46:27;;;;;;;6.53;5.33;;;;;;;30.95;45.05;96789.59;5047129;28;20239;-75
2023/07/06 09:50:00;;;;;;;6.72;5.80;;;;;;;30.87;45.41;96796.97;5029419;28;20586;-74
2023/07/06 09:53:21;;;;;;;7.50;5.83;;;;;;;31.09;44.47;96795.75;5026702;28;20408;-77
2023/07/06 09:56:43;;;;;;;7.10;5.77;;;;;;;30.72;44.67;96756.97;5027300;28;20628;-76
2023/07/06 10:00:06;;;;;;;10.87;5.27;;;;;;;30.81;44.27;96792.41;5045287;28;20230;-75
2023/07/06 10:03:21;;;;;;;7.83;5.17;;;;;;;30.54;44.24;96778.13;5010433;28;20302;-80
2023/07/06 10:06:27;;;;;;;6.90;5.23;;;;;;;30.91;43.41;96779.47;5045158;28;20248;-76
2023/07/06 10:09:03;;;;;;;5.50;5.00;;;;;;;30.91;44.70;96782.16;5035657;28;20205;-74
2023/07/06 10:11:50;;;;;;;5.83;5.20;;;;;;;31.13;45.03;96789.81;5037678;28;20614;-77
2023/07/06 10:14:25;;;;;;;7.47;6.05;;;;;;;31.06;44.13;96774.75;5053052;28;20202;-77
2023/07/06 10:17:23;;;;;;;5.90;5.30;;;;;;;30.99;43.92;96774.78;5028385;28;20232;-79
2023/07/06 10:20:49;;;;;;;6.47;5.13;;;;;;;30.91;44.43;96788.34;5027874;28;20224;-76
2023/07/06 10:23:52;;;;;;;7.88;5.28;;;;;;;31.30;43.44;96763.47;5014198;28;20193;-77
2023/07/06 10:27:14;;;;;;;7.38;5.78;;;;;;;31.49;42.44;96727.84;5030590;28;20209;-77
2023/07/06 10:30:53;;;;;;;6.18;5.57;;;;;;;31.85;42.04;96770.22;5032692;28;20201;-78
2023/07/06 10:34:08;;;;;;;7.85;4.97;;;;;;;31.41;42.01;96767.41;5033505;28;20201;-78
2023/07/06 10:37:30;;;;;;;7.00;5.45;;;;;;;31.71;40.85;96753.38;5048387;28;20201;-76
2023/07/06 10:40:41;;;;;;;8.82;6.38;;;;;;;31.72;41.58;96760.38;5029909;28;20202;-76
2023/07/06 10:44:02;;;;;;;6.07;5.30;;;;;;;31.03;41.94;96753.78;5053699;28;20198;-76
2023/07/06 10:47:25;;;;;;;10.75;7.90;;;;;;;31.56;41.68;96754.63;5034559;28;20976;-77
2023/07/06 10:50:07;;;;;;;7.05;4.88;;;;;;;30.97;42.16;96760.78;5049385;28;20204;-80
2023/07/06 10:53:04;;;;;;;16.30;10.43;;;;;;;30.79;42.04;96754.31;5048534;28;20210;-76
2023/07/06 10:56:34;;;;;;;6.67;5.90;;;;;;;30.92;42.28;96741.00;5033235;28;20198;-75
2023/07/06 10:59:55;;;;;;;11.50;7.93;;;;;;;31.33;41.79;96741.63;5030612;28;20229;-76
2023/07/06 11:03:16;;;;;;;24.17;12.55;;;;;;;31.71;40.54;96736.47;5030295;28;20684;-75
2023/07/06 11:06:39;;;;;;;37.28;20.88;;;;;;;31.50;40.55;96737.53;5048167;28;20685;-76
2023/07/06 11:10:06;;;;;;;52.70;31.63;;;;;;;31.12;41.80;96731.94;5048464;28;20198;-77
2023/07/06 11:13:09;;;;;;;8.73;6.70;;;;;;;31.04;41.49;96736.66;5030670;28;20195;-77
2023/07/06 11:16:32;;;;;;;21.70;14.73;;;;;;;31.14;40.75;96724.53;5011167;28;20206;-76
2023/07/06 11:19:55;;;;;;;13.07;8.87;;;;;;;31.67;40.04;96720.00;5047307;28;20286;-75
2023/07/06 11:23:16;;;;;;;10.55;7.72;;;;;;;31.99;38.88;96727.16;5048284;28;20200;-77
2023/07/06 11:26:35;;;;;;;14.98;9.75;;;;;;;32.52;38.33;96727.78;5032557;28;20263;-79
2023/07/06 11:29:08;;;;;;;9.95;7.22;;;;;;;32.37;38.08;96705.78;5048861;28;20222;-79
2023/07/06 11:31:53;;;;;;;11.32;8.18;;;;;;;32.46;38.25;96706.38;5013796;28;20196;-76
2023/07/06 11:34:47;;;;;;;128.90;64.55;;;;;;;32.33;38.96;96720.63;5031296;28;20207;-79
2023/07/06 11:37:33;;;;;;;12.77;9.23;;;;;;;32.55;37.09;96721.16;5048126;28;20205;-77
2023/07/06 11:40:35;;;;;;;7.97;5.28;;;;;;;32.28;38.00;96724.97;5048267;28;20208;-78
2023/07/06 11:43:03;;;;;;;7.68;5.38;;;;;;;32.09;38.14;96719.50;5049126;28;20630;-79
2023/07/06 11:46:08;;;;;;;5.90;4.90;;;;;;;32.25;38.67;96712.00;5030167;28;20229;-77
2023/07/06 11:48:37;;;;;;;8.20;5.72;;;;;;;32.37;38.48;96711.13;5048426;28;20918;-75
2023/07/06 11:51:05;;;;;;;6.28;5.43;;;;;;;32.39;38.37;96694.81;5030421;28;20190;-80
2023/07/06 11:59:15;;;;;;;17.30;9.80;;;;;;;32.41;38.21;96706.16;5048322;28;20244;-74
2023/07/06 12:01:46;;;;;;;8.82;6.40;;;;;;;32.06;38.48;96698.50;5029754;28;20237;-75
2023/07/06 12:04:17;;;;;;;8.80;6.45;;;;;;;32.35;38.33;96710.53;5048406;28;20221;-77
2023/07/06 12:06:45;;;;;;;5.70;5.18;;;;;;;31.90;38.94;96714.97;5047170;28;20252;-75
2023/07/06 12:09:20;;;;;;;6.60;6.00;;;;;;;31.97;38.64;96715.81;5048134;28;20196;-77
2023/07/06 12:12:06;;;;;;;5.80;5.15;;;;;;;31.56;39.48;96698.38;5052620;28;20818;-77
2023/07/06 12:14:37;;;;;;;8.43;5.53;;;;;;;31.26;40.15;96701.47;5057499;28;20194;-82
2023/07/06 12:17:06;;;;;;;7.25;5.45;;;;;;;31.07;40.75;96706.84;5041507;28;20338;-80
2023/07/06 12:19:37;;;;;;;6.00;5.40;;;;;;;30.90;43.31;96700.25;5039750;28;20256;-74
2023/07/06 12:22:04;;;;;;;6.80;5.57;;;;;;;30.73;44.60;96696.31;5067769;28;20231;-76
2023/07/06 12:24:33;;;;;;;7.00;5.90;;;;;;;30.56;43.76;96674.47;5049201;28;20276;-80
2023/07/06 12:27:02;;;;;;;10.03;6.30;;;;;;;30.75;43.99;96700.41;5049943;28;20193;-75
2023/07/06 12:29:32;;;;;;;8.73;6.03;;;;;;;31.07;43.29;96701.50;5049378;28;20672;-76
2023/07/06 12:32:08;;;;;;;7.13;5.87;;;;;;;31.30;43.11;96697.34;5067139;28;20193;-76
2023/07/06 12:34:49;;;;;;;12.83;11.73;;;;;;;31.31;43.89;96698.19;5049532;28;20584;-76
2023/07/06 12:37:20;;;;;;;7.50;5.87;;;;;;;31.40;44.05;96693.47;5048349;28;20973;-78
2023/07/06 12:39:50;;;;;;;9.13;6.10;;;;;;;31.63;43.76;96692.00;5067549;28;20238;-79
2023/07/06 12:42:21;;;;;;;8.23;5.50;;;;;;;31.28;43.07;96678.00;5032977;28;20225;-76
2023/07/06 12:44:50;;;;;;;8.40;5.40;;;;;;;31.43;42.73;96691.19;5015163;28;20202;-75
2023/07/06 12:47:40;;;;;;;7.13;5.70;;;;;;;31.85;41.82;96690.69;5049863;28;20215;-76
2023/07/06 12:50:26;;;;;;;9.65;5.57;;;;;;;32.07;41.98;96686.72;5032178;28;20598;-77
2023/07/06 12:53:28;;;;;;;6.65;5.07;;;;;;;32.37;41.80;96683.50;5029614;28;20207;-75
2023/07/06 12:56:06;;;;;;;6.82;5.50;;;;;;;32.01;41.71;96687.56;5067020;28;20193;-77
2023/07/06 12:58:36;;;;;;;8.33;5.37;;;;;;;31.37;43.13;96688.53;5047861;28;20233;-76
2023/07/06 13:01:20;;;;;;;10.10;6.57;;;;;;;31.58;43.31;96682.94;5049151;28;20205;-77
2023/07/06 13:03:56;;;;;;;5.72;5.00;;;;;;;31.80;43.05;96669.06;5066423;28;20193;-75
2023/07/06 13:06:26;;;;;;;8.45;6.22;;;;;;;32.04;42.38;96697.06;5048436;28;20205;-77
2023/07/06 13:09:01;;;;;;;5.90;5.13;;;;;;;32.20;42.12;96680.47;5048976;28;20944;-77
2023/07/06 13:11:29;;;;;;;5.80;5.30;;;;;;;32.32;42.34;96685.97;5065880;28;20958;-76
2023/07/06 13:14:04;;;;;;;7.10;5.63;;;;;;;32.60;41.44;96678.44;5066648;28;20292;-77
2023/07/06 13:16:42;;;;;;;7.00;5.50;;;;;;;32.57;41.64;96684.22;5065949;28;20283;-77
2023/07/06 13:19:11;;;;;;;6.80;5.32;;;;;;;32.51;41.29;96674.34;5048074;28;20235;-76
2023/07/06 13:21:42;;;;;;;7.32;5.57;;;;;;;32.47;41.98;96667.78;5066106;28;20263;-74
2023/07/06 13:24:49;;;;;;;6.65;5.43;;;;;;;32.31;41.71;96679.00;5065969;28;20217;-78
2023/07/06 13:28:11;;;;;;;5.78;4.40;;;;;;;32.18;43.14;96673.69;5047319;28;20201;-76
2023/07/06 13:31:32;;;;;;;6.10;5.50;;;;;;;32.33;42.63;96671.56;5050092;28;20197;-77
2023/07/06 13:34:52;;;;;;;7.53;5.40;;;;;;;32.60;41.45;96678.44;5032711;28;20228;-83
2023/07/06 13:38:13;;;;;;;6.00;5.07;;;;;;;32.45;40.54;96669.81;5016118;28;20204;-79
2023/07/06 13:41:37;;;;;;;7.05;5.30;;;;;;;32.31;41.00;96662.91;5064768;28;20232;-77
2023/07/06 13:45:00;;;;;;;6.75;5.38;;;;;;;32.39;41.45;96663.47;5016975;28;20292;-78
2023/07/06 13:48:23;;;;;;;6.70;5.10;;;;;;;32.31;40.97;96663.72;5065360;28;20197;-78
2023/07/06 13:51:43;;;;;;;7.07;5.53;;;;;;;32.54;40.73;96668.56;5065025;28;20221;-79
2023/07/06 13:55:04;;;;;;;6.50;5.65;;;;;;;32.32;41.36;96668.03;5063932;28;20204;-78
2023/07/06 13:58:25;;;;;;;9.27;5.80;;;;;;;32.36;41.15;96658.53;5017128;28;20205;-76
2023/07/06 14:01:47;;;;;;;8.63;5.28;;;;;;;32.18;41.83;96673.69;5051418;28;20649;-78
2023/07/06 14:05:08;;;;;;;6.25;5.47;;;;;;;31.79;41.08;96667.44;5034115;28;20201;-81
2023/07/06 14:08:29;;;;;;;7.35;5.70;;;;;;;31.90;40.76;96663.28;5044901;28;20256;-82
2023/07/06 14:11:51;;;;;;;6.15;5.55;;;;;;;32.06;40.72;96660.97;5044716;28;20206;-78
2023/07/06 14:15:14;;;;;;;7.32;6.00;;;;;;;32.30;41.05;96666.59;5027505;28;20641;-77
2023/07/06 14:17:58;;;;;;;8.23;5.40;;;;;;;32.57;40.38;96668.13;5039161;28;20308;-81
2023/07/06 14:20:27;;;;;;;6.72;6.03;;;;;;;32.44;40.46;96668.19;4998036;28;20649;-80
2023/07/06 14:22:55;;;;;;;8.43;5.70;;;;;;;32.22;40.31;96659.66;5028334;28;20226;-80
2023/07/06 14:25:26;;;;;;;6.57;5.45;;;;;;;32.15;41.41;96679.50;5010886;28;20607;-77
2023/07/06 14:27:56;;;;;;;7.13;5.53;;;;;;;31.93;41.77;96639.59;5046058;28;20283;-80